• Join FlightAware (Why Join?)
  • Login
  • US Flag 
03:34PM EDT


 

Airport Tracker/Info


-or-


 

Live Flight TrackerFlight Track Log ✈ CSN3614 ✈ 31-Jul-2014 ✈ ZYMD / MDG - ZSPD / PVG

Flight Track Log - Related Links

Times and Time Zones

All times are in EDT time to prevent confusion due to time zone crossing. See the CSN3614 flight status page for this flight to view local times or setup timezone preferences in your user account.

Time Position Orientation Groundspeed Altitude Reporting Facility
EDT Latitude Longitude Course Direction KTS MPH feet Rate Location/Type
05:46AM 39.1590 121.8751 249° West 34,100  Level FlightAware ADS-B (ZSQD / TAO)
05:46AM 39.1560 121.8646 249° West 379 436 34,100  Level FlightAware ADS-B (ZSQD / TAO)
05:47AM 39.1191 121.7395 360° North 527 606 34,100  Level FlightAware ADS-B (ZSQD / TAO)
05:48AM 39.0475 121.5580 360° North 552 635 34,100  Level FlightAware ADS-B (ZSQD / TAO)
05:48AM 39.0301 121.5273 360° North 552 635 34,100  Level FlightAware ADS-B (ZSQD / TAO)
05:49AM 38.9640 121.4333 228° Southwest 497 572 34,100  Level FlightAware ADS-B (ZSQD / TAO)
05:49AM 38.9156 121.3816 220° Southwest 609 701 34,100  Level FlightAware ADS-B (ZSQD / TAO)
05:50AM 38.8631 121.3351 215° Southwest 609 701 34,100  Level FlightAware ADS-B (ZSQD / TAO)
05:50AM 38.8092 121.2882 214° Southwest 442 509 34,100  Level FlightAware ADS-B (ZSQD / TAO)
05:51AM 38.7649 121.2496 214° Southwest 463 533 34,100  Level FlightAware ADS-B (ZSQD / TAO)
05:51AM 38.7447 121.2321 360° North 463 533 34,100  Level FlightAware ADS-B (ZSQD / TAO)
05:52AM 38.6528 121.1543 360° North 456 525 34,100  Level FlightAware ADS-B (ZSQD / TAO)
05:52AM 38.6384 121.1421 360° North 434 499 34,100  Level FlightAware ADS-B (ZSQD / TAO)
05:53AM 38.5713 121.0770 217° Southwest 448 516 34,100  Level FlightAware ADS-B (ZSQD / TAO)
05:53AM 38.5146 121.0019 360° North 476 548 34,100  Level FlightAware ADS-B (ZSQD / TAO)
05:54AM 38.4831 120.9481 233° Southwest 443 510 34,100  Level FlightAware ADS-B (ZSQD / TAO)
05:54AM 38.4389 120.8590 238° Southwest 489 563 34,100  Level FlightAware ADS-B (ZSQD / TAO)
05:55AM 38.4043 120.7887 238° Southwest 489 563 34,100  Level FlightAware ADS-B (ZSQD / TAO)
05:55AM 38.3730 120.7346 234° Southwest 445 512 34,100  Level FlightAware ADS-B (ZSQD / TAO)
05:56AM 38.3226 120.6658 227° Southwest 535 616 34,100  Level FlightAware ADS-B (ZSQD / TAO)
05:56AM 38.2759 120.6141 221° Southwest 469 540 34,100  Level FlightAware ADS-B (ZSQD / TAO)
05:57AM 38.2290 120.5717 215° Southwest 488 562 34,100  Level FlightAware ADS-B (ZSQD / TAO)
05:57AM 38.1658 120.5265 209° Southwest 457 526 34,100  Level FlightAware ADS-B (ZSQD / TAO)
05:58AM 38.1080 120.4924 205° Southwest 457 526 34,100  Level FlightAware ADS-B (ZSQD / TAO)
05:58AM 38.0467 120.4665 198° South 464 534 34,100  Level FlightAware ADS-B (ZSQD / TAO)
05:59AM 37.9820 120.4484 192° South 461 531 34,100  Level FlightAware ADS-B (ZSQD / TAO)
05:59AM 37.9174 120.4395 186° South 466 536 34,100  Level FlightAware ADS-B (ZSQD / TAO)
06:00AM 37.8543 120.4338 184° South 478 550 34,100  Level FlightAware ADS-B (ZSQD / TAO)
06:00AM 37.7878 120.4277 360° North 474 545 34,100  Level FlightAware ADS-B (ZSQD / TAO)
06:01AM 37.7240 120.4223 360° North 473 544 34,100  Level FlightAware ADS-B (ZSQD / TAO)
06:01AM 37.6598 120.4170 184° South 469 540 34,100  Level FlightAware ADS-B (ZSQD / TAO)
06:02AM 37.5944 120.4078 186° South 469 540 34,100  Level FlightAware ADS-B (ZSQD / TAO)
06:02AM 37.5302 120.3983 187° South 462 532 34,100  Level FlightAware ADS-B (ZSQD / TAO)
06:03AM 37.4656 120.3889 187° South 464 534 34,100  Level FlightAware ADS-B (ZSQD / TAO)
06:03AM 37.4024 120.3796 187° South 462 532 34,100  Level FlightAware ADS-B (ZSQD / TAO)
06:04AM 37.3386 120.3703 187° South 474 545 34,100  Level FlightAware ADS-B (ZSQD / TAO)
06:04AM 37.2735 120.3609 187° South 470 541 34,100  Level FlightAware ADS-B (ZSQD / TAO)
06:05AM 37.2093 120.3518 186° South 464 534 34,100  Level FlightAware ADS-B (ZSQD / TAO)
06:05AM 37.1463 120.3427 187° South 464 534 34,100  Level FlightAware ADS-B (ZSQD / TAO)
06:06AM 37.0821 120.3334 187° South 470 541 34,100  Level FlightAware ADS-B (ZSQD / TAO)
06:06AM 37.0184 120.3241 187° South 463 533 34,100  Level FlightAware ADS-B (ZSQD / TAO)
06:07AM 36.9543 120.3149 187° South 466 536 34,100  Level FlightAware ADS-B (ZSQD / TAO)
06:07AM 36.8893 120.3054 187° South 464 534 34,100  Level FlightAware ADS-B (ZSQD / TAO)
06:08AM 36.8248 120.2960 187° South 465 535 34,100  Level FlightAware ADS-B (ZSQD / TAO)
06:08AM 36.7630 120.2869 187° South 465 535 34,100  Level FlightAware ADS-B (ZSQD / TAO)
06:09AM 36.6973 120.2773 187° South 467 537 34,100  Level FlightAware ADS-B (ZSQD / TAO)
06:09AM 36.6344 120.2682 187° South 463 533 34,100  Level FlightAware ADS-B (ZSQD / TAO)
06:10AM 36.5712 120.2589 187° South 463 533 34,100  Level FlightAware ADS-B (ZSQD / TAO)
06:10AM 36.5100 120.2531 184° South 460 529 34,100  Level FlightAware ADS-B (ZSQD / TAO)
06:11AM 36.4441 120.2512 181° South 461 531 34,100  Level FlightAware ADS-B (ZSQD / TAO)
06:11AM 36.3793 120.2522 179° South 465 535 34,100  Level FlightAware ADS-B (ZSQD / TAO)
06:12AM 36.3175 120.2769 162° South 465 535 34,100  Level FlightAware ADS-B (ZSQD / TAO)
06:12AM 36.2599 120.3131 153° Southeast 462 532 34,100  Level FlightAware ADS-B (ZSQD / TAO)
06:13AM 36.2044 120.3480 153° Southeast 462 532 34,100  Level FlightAware ADS-B (ZSQD / TAO)
06:13AM 36.1443 120.3844 154° Southeast 466 536 34,100  Level FlightAware ADS-B (ZSQD / TAO)
06:14AM 36.0892 120.4175 154° Southeast 462 532 34,100  Level FlightAware ADS-B (ZSQD / TAO)
06:14AM 36.0291 120.4541 154° Southeast 461 531 34,100  Level FlightAware ADS-B (ZSQD / TAO)
06:15AM 35.9730 120.4883 154° Southeast 466 536 34,100  Level FlightAware ADS-B (ZSQD / TAO)
06:15AM 35.9165 120.5224 154° Southeast 463 533 34,100  Level FlightAware ADS-B (ZSQD / TAO)
06:16AM 35.8602 120.5566 154° Southeast 464 534 34,100  Level FlightAware ADS-B (ZSQD / TAO)
06:16AM 35.8014 120.5923 154° Southeast 463 533 34,100  Level FlightAware ADS-B (ZSQD / TAO)
06:17AM 35.7459 120.6258 154° Southeast 458 527 34,100  Level FlightAware ADS-B (ZSQD / TAO)
06:17AM 35.6888 120.6603 154° Southeast 458 527 34,100  Level FlightAware ADS-B (ZSQD / TAO)
06:18AM 35.6323 120.6941 154° Southeast 455 524 34,100  Level FlightAware ADS-B (ZSQD / TAO)
06:18AM 35.5756 120.7281 154° Southeast 452 520 34,100  Level FlightAware ADS-B (ZSQD / TAO)
06:19AM 35.5185 120.7624 154° Southeast 458 527 34,100  Level FlightAware ADS-B (ZSQD / TAO)
06:19AM 35.4598 120.7949 156° South 458 527 34,100  Level FlightAware ADS-B (ZSQD / TAO)
06:20AM 35.4011 120.8239 158° South 461 531 34,100  Level FlightAware ADS-B (ZSQD / TAO)
06:20AM 35.3471 120.8506 360° North 451 519 34,100  Level FlightAware ADS-B (ZSQD / TAO)
06:21AM 35.2860 120.8809 158° South 460 529 34,100  Level FlightAware ADS-B (ZSQD / TAO)
06:21AM 35.2290 120.9092 158° South 458 527 34,100  Level FlightAware ADS-B (ZSQD / TAO)
06:22AM 35.1717 120.9373 158° South 458 527 34,100  Level FlightAware ADS-B (ZSQD / TAO)
06:22AM 35.1133 120.9662 158° South 446 513 34,100  Level FlightAware ADS-B (ZSQD / TAO)
06:23AM 35.0617 120.9916 158° South 447 514 34,100  Level FlightAware ADS-B (ZSQD / TAO)
06:23AM 35.0227 121.0106 158° South 450 518 34,100  Level FlightAware ADS-B (ZSQD / TAO)
06:26AM 34.7050 121.0773 170° South  Level Estimated
06:27AM 34.5584 121.1080 170° South  Level Estimated
06:28AM 34.4118 121.1385 170° South  Level Estimated
06:29AM 34.2651 121.1689 170° South  Level Estimated
06:30AM 34.1185 121.1992 170° South  Level Estimated
06:31AM 33.9719 121.2294 170° South  Level Estimated
06:32AM 33.8252 121.2595 170° South  Level Estimated
06:33AM 33.6785 121.2895 170° South  Level Estimated
06:34AM 33.5319 121.3194 170° South  Level Estimated
06:35AM 33.3852 121.3492 170° South  Level Estimated
06:36AM 33.2385 121.3788 170° South  Level Estimated
06:37AM 33.0918 121.4084 170° South  Level Estimated
06:38AM 32.9451 121.4379 170° South  Level Estimated
06:39AM 32.7984 121.4673 170° South  Level Estimated
06:40AM 32.6517 121.4966 170° South  Level Estimated
06:41AM 32.5050 121.5258 170° South  Level Estimated
06:42AM 32.3582 121.5549 170° South  Level Estimated
06:43AM 32.2115 121.5839 171° South  Level Estimated
06:44AM 32.0648 121.6128 171° South  Level Estimated
06:45AM 31.9180 121.6416 171° South  Level Estimated
06:46AM 31.7712 121.6704 171° South  Level Estimated
06:47AM 31.6245 121.6990 171° South  Level Estimated
06:48AM 31.4777 121.7276 171° South  Level Estimated
06:49AM 31.3309 121.7560 171° South  Level Estimated
06:50AM 31.1842 121.7844 171° South  Level Estimated
06:51AM 31.1428 121.7924 171° South  Level Estimated
06:52AM 31.1428 121.7924 North  Level Estimated
06:53AM 31.1428 121.7924 North  Level Estimated
06:54AM 31.1428 121.7924 North  Level Estimated
06:55AM 31.1428 121.7924 North  Level Estimated
06:56AM 31.1428 121.7924 North  Level Estimated
06:57AM 31.1428 121.7924 North  Level Estimated
06:58AM 31.1428 121.7924 North  Level Estimated
06:59AM 31.1428 121.7924 North  Level Estimated
07:00AM 31.1428 121.7924 North  Level Estimated
07:01AM 31.1428 121.7924 North  Level Estimated
07:02AM 31.1428 121.7924 North  Level Estimated
07:03AM 31.1428 121.7924 North  Level Estimated
07:04AM 31.1428 121.7924 North  Level Estimated
07:05AM 31.1428 121.7924 North  Level Estimated
07:06AM 31.1428 121.7924 North  Level Estimated
07:07AM 31.1428 121.7924 North  Level Estimated
07:08AM 31.1428 121.7924 North  Level Estimated
07:09AM 31.1428 121.7924 North  Level Estimated
07:10AM 31.1428 121.7924 North  Level Estimated
07:11AM 31.1428 121.7924 North  Level Estimated
07:12AM 31.1428 121.7924 North  Level Estimated
07:13AM 31.1428 121.7924 North  Level Estimated
07:14AM 31.1428 121.7924 North  Level Estimated
07:15AM 31.1428 121.7924 North  Level Estimated
07:16AM 31.1428 121.7924 North  Level Estimated
07:17AM 31.1428 121.7924 North  Level Estimated
07:18AM 31.1428 121.7924 North  Level Estimated
07:19AM 31.1428 121.7924 North  Level Estimated
07:20AM 31.1428 121.7924 North  Level Estimated
07:21AM 31.1428 121.7924 North  Level Estimated
07:22AM 31.1428 121.7924 North  Level Estimated
07:23AM 31.1428 121.7924 North  Level Estimated
07:24AM 31.1428 121.7924 North  Level Estimated
07:25AM 31.1428 121.7924 North  Level Estimated
07:26AM 31.1428 121.7924 North  Level Estimated
07:27AM 31.1428 121.7924 North  Level Estimated
07:28AM 31.1428 121.7924 North  Level Estimated
07:29AM 31.1428 121.7924 North  Level Estimated
07:30AM 31.1428 121.7924 North  Level Estimated
07:31AM 31.1428 121.7924 North  Level Estimated
07:32AM 31.1428 121.7924 North  Level Estimated
07:33AM 31.1428 121.7924 North  Level Estimated
07:34AM 31.1428 121.7924 North  Level Estimated
07:35AM 31.1428 121.7924 North  Level Estimated
07:36AM 31.1428 121.7924 North  Level Estimated
07:37AM 31.1428 121.7924 North  Level Estimated
07:38AM 31.1428 121.7924 North  Level Estimated
07:39AM 31.1428 121.7924 North  Level Estimated
07:40AM 31.1428 121.7924 North  Level Estimated
07:41AM 31.1428 121.7924 North  Level Estimated